Time;durP1;ratioP1;P1;durP2;ratioP2;P2;SDS_P1;SDS_P2;PMS_P1;PMS_P2;Temp;Humidity;BMP_temperature;BMP_pressure;BME280_temperature;BME280_humidity;BME280_pressure;Samples;Min_cycle;Max_cycle;Signal;HPM_P1;HPM_P2
2022/03/05 00:02:06;;;;;;;;;;;;;;;1.97;100.00;98552.95;1689014;83;24718;-83
2022/03/05 00:04:32;;;;;;;;;;;;;;;1.98;100.00;98553.35;1687593;84;21964;-83
2022/03/05 00:06:58;;;;;;;;;;;;;;;2.08;100.00;98557.31;1692416;83;26790;-82
2022/03/05 00:09:24;;;;;;;;;;;;;;;2.15;100.00;98552.78;1679982;83;24420;-82
2022/03/05 00:11:50;;;;;;;;;;;;;;;2.04;100.00;98554.88;1669659;84;20215;-82
2022/03/05 00:14:18;;;;;;;;;;;;;;;2.00;100.00;98554.60;1670208;83;24753;-83
2022/03/05 00:16:44;;;;;;;;;;;;;;;1.95;100.00;98552.63;1667823;84;21984;-87
2022/03/05 00:19:10;;;;;;;;;;;;;;;1.84;100.00;98549.55;1669684;84;26025;-86
2022/03/05 00:21:36;;;;;;;;;;;;;;;1.78;100.00;98554.91;1688662;83;24374;-86
2022/03/05 00:24:02;;;;;;;;;;;;;;;1.74;100.00;98550.31;1656808;84;20248;-86
2022/03/05 00:26:28;;;;;;;;;;;;;;;1.72;100.00;98556.40;1664052;84;24860;-86
2022/03/05 00:28:55;;;;;;;;;;;;;;;1.63;100.00;98562.71;1655463;85;21242;-86
2022/03/05 00:31:21;;;;;;;;;;;;;;;1.51;100.00;98556.20;1661415;84;26018;-85
2022/03/05 00:33:47;;;;;;;;;;;;;;;1.41;100.00;98556.09;1660896;85;24288;-83
2022/03/05 00:36:13;;;;;;;;;;;;;;;1.38;100.00;98556.62;1667513;84;20339;-83
2022/03/05 00:38:40;;;;;;;;;;;;;;;1.33;100.00;98557.20;1667803;85;20243;-83
2022/03/05 00:41:06;;;;;;;;;;;;;;;1.33;100.00;98554.63;1660980;84;21726;-83
2022/03/05 00:43:32;;;;;;;;;;;;;;;1.31;100.00;98553.86;1667870;85;26187;-83
2022/03/05 00:45:58;;;;;;;;;;;;;;;1.34;100.00;98556.33;1670212;84;24527;-83
2022/03/05 00:48:24;;;;;;;;;;;;;;;1.37;100.00;98554.92;1662494;85;20446;-83
2022/03/05 00:50:50;;;;;;;;;;;;;;;1.36;100.00;98555.84;1654301;84;24733;-83
2022/03/05 00:53:18;;;;;;;;;;;;;;;1.38;100.00;98556.62;1655618;85;21919;-83
2022/03/05 00:55:44;;;;;;;;;;;;;;;1.44;100.00;98555.14;1659815;84;25962;-83
2022/03/05 00:58:10;;;;;;;;;;;;;;;1.45;100.00;98551.68;1661230;85;24515;-86
2022/03/05 01:00:36;;;;;;;;;;;;;;;1.45;100.00;98555.55;1663582;85;20310;-86
2022/03/05 01:03:03;;;;;;;;;;;;;;;1.42;100.00;98553.08;1665362;84;24745;-87
2022/03/05 01:05:29;;;;;;;;;;;;;;;1.43;100.00;98546.56;1665326;84;21934;-87
2022/03/05 01:07:55;;;;;;;;;;;;;;;1.42;100.00;98545.34;1655721;84;25998;-87
2022/03/05 01:10:21;;;;;;;;;;;;;;;1.42;100.00;98541.00;1665243;85;20844;-87
2022/03/05 01:12:47;;;;;;;;;;;;;;;1.47;100.00;98543.02;1662750;85;20347;-87
2022/03/05 01:15:13;;;;;;;;;;;;;;;1.55;100.00;98542.75;1659003;85;20246;-87
2022/03/05 01:17:39;;;;;;;;;;;;;;;1.59;100.00;98541.75;1666185;84;21946;-87
2022/03/05 01:20:05;;;;;;;;;;;;;;;1.58;100.00;98544.78;1664100;85;25951;-87
2022/03/05 01:22:31;;;;;;;;;;;;;;;1.57;100.00;98542.27;1653153;84;24504;-87
2022/03/05 01:24:57;;;;;;;;;;;;;;;1.54;100.00;98548.80;1656314;84;20290;-87
2022/03/05 01:27:23;;;;;;;;;;;;;;;1.57;100.00;98548.27;1653365;85;24792;-87
2022/03/05 01:29:50;;;;;;;;;;;;;;;1.68;100.00;98544.91;1659692;85;22883;-87
2022/03/05 01:32:17;;;;;;;;;;;;;;;1.82;100.00;98544.88;1658248;85;26099;-87
2022/03/05 01:34:43;;;;;;;;;;;;;;;1.90;100.00;98548.91;1654087;84;24522;-87
2022/03/05 01:37:09;;;;;;;;;;;;;;;1.92;100.00;98550.12;1652088;85;20305;-86
2022/03/05 01:39:35;;;;;;;;;;;;;;;1.98;100.00;98552.06;1657178;85;24737;-86
2022/03/05 01:42:01;;;;;;;;;;;;;;;2.06;100.00;98546.21;1659901;84;22036;-86
2022/03/05 01:44:27;;;;;;;;;;;;;;;2.15;100.00;98545.48;1655926;84;26042;-87
2022/03/05 01:46:54;;;;;;;;;;;;;;;2.21;100.00;98542.70;1655355;85;24514;-86
2022/03/05 01:49:20;;;;;;;;;;;;;;;2.32;100.00;98545.30;1659635;84;20521;-86
2022/03/05 01:51:46;;;;;;;;;;;;;;;2.34;100.00;98539.65;1650070;85;24813;-86
2022/03/05 01:54:13;;;;;;;;;;;;;;;2.43;100.00;98538.47;1655377;85;22044;-86
2022/03/05 01:56:40;;;;;;;;;;;;;;;2.51;100.00;98533.41;1650789;85;25998;-87
2022/03/05 01:59:06;;;;;;;;;;;;;;;2.57;100.00;98532.34;1650559;85;24486;-87
2022/03/05 02:01:33;;;;;;;;;;;;;;;2.57;100.00;98532.34;1659863;84;20541;-87
2022/03/05 02:04:00;;;;;;;;;;;;;;;2.58;100.00;98535.77;1646565;85;25575;-87
2022/03/05 02:06:27;;;;;;;;;;;;;;;2.53;100.00;98538.53;1653472;85;22149;-87
2022/03/05 02:08:54;;;;;;;;;;;;;;;2.45;100.00;98540.11;1651579;84;26495;-88
2022/03/05 02:11:21;;;;;;;;;;;;;;;2.45;100.00;98535.39;1649695;85;24441;-87
2022/03/05 02:13:47;;;;;;;;;;;;;;;2.42;100.00;98536.78;1647230;85;20283;-87
2022/03/05 02:16:13;;;;;;;;;;;;;;;2.32;100.00;98541.88;1651829;84;24819;-87
2022/03/05 02:18:41;;;;;;;;;;;;;;;2.26;100.00;98534.34;1644389;85;22009;-87
2022/03/05 02:21:08;;;;;;;;;;;;;;;2.22;100.00;98540.07;1633039;85;25923;-88
2022/03/05 02:23:34;;;;;;;;;;;;;;;2.18;100.00;98534.62;1651898;85;24508;-88
2022/03/05 02:26:02;;;;;;;;;;;;;;;2.21;100.00;98534.95;1649068;86;20290;-87
2022/03/05 02:28:29;;;;;;;;;;;;;;;2.13;100.00;98538.27;1653618;85;24917;-87
2022/03/05 02:31:00;;;;;;;;;;;;;;;2.11;100.00;98542.17;1646867;86;21990;-87
2022/03/05 02:33:27;;;;;;;;;;;;;;;2.17;100.00;98541.12;1649114;85;26081;-86
2022/03/05 02:35:53;;;;;;;;;;;;;;;2.10;100.00;98544.36;1650141;85;24048;-86
2022/03/05 02:38:21;;;;;;;;;;;;;;;2.02;100.00;98544.61;1650648;85;20245;-86
2022/03/05 02:40:47;;;;;;;;;;;;;;;2.06;100.00;98544.92;1644793;84;25516;-87
2022/03/05 02:43:14;;;;;;;;;;;;;;;2.04;100.00;98544.56;1654448;86;21959;-87
2022/03/05 02:45:40;;;;;;;;;;;;;;;2.06;100.00;98541.49;1645880;86;26046;-87
2022/03/05 02:48:07;;;;;;;;;;;;;;;2.13;100.00;98544.23;1647865;85;24542;-87
2022/03/05 02:50:34;;;;;;;;;;;;;;;2.24;100.00;98538.70;1649092;86;20474;-87
2022/03/05 02:53:00;;;;;;;;;;;;;;;2.31;100.00;98544.06;1648004;86;24720;-87
2022/03/05 02:55:28;;;;;;;;;;;;;;;2.25;100.00;98537.37;1654569;86;22032;-87
2022/03/05 02:57:54;;;;;;;;;;;;;;;2.17;100.00;98538.55;1650369;85;26003;-87
2022/03/05 03:00:20;;;;;;;;;;;;;;;2.21;100.00;98547.41;1647835;86;24479;-87
2022/03/05 03:02:46;;;;;;;;;;;;;;;2.27;100.00;98548.94;1654339;85;20656;-87
2022/03/05 03:05:13;;;;;;;;;;;;;;;2.23;100.00;98552.09;1649886;85;24736;-86
2022/03/05 03:07:40;;;;;;;;;;;;;;;2.22;100.00;98550.84;1624110;87;22044;-87
2022/03/05 03:10:07;;;;;;;;;;;;;;;2.18;100.00;98558.31;1622025;87;25972;-87
2022/03/05 03:12:33;;;;;;;;;;;;;;;2.12;100.00;98553.34;1621257;87;24422;-88
2022/03/05 03:14:59;;;;;;;;;;;;;;;2.10;100.00;98554.23;1622745;87;20218;-88
2022/03/05 03:17:26;;;;;;;;;;;;;;;2.13;100.00;98551.17;1627456;86;20777;-88
2022/03/05 03:19:53;;;;;;;;;;;;;;;2.19;100.00;98547.91;1646857;86;20309;-88
2022/03/05 03:22:19;;;;;;;;;;;;;;;2.25;100.00;98542.98;1643256;86;26131;-87
2022/03/05 03:24:45;;;;;;;;;;;;;;;2.26;100.00;98548.55;1651855;83;24487;-87
2022/03/05 03:27:12;;;;;;;;;;;;;;;2.24;100.00;98547.30;1655479;85;20182;-87
2022/03/05 03:29:38;;;;;;;;;;;;;;;2.29;100.00;98547.16;1649322;85;24998;-87
2022/03/05 03:32:04;;;;;;;;;;;;;;;2.29;100.00;98547.16;1658619;84;21992;-87
2022/03/05 03:34:30;;;;;;;;;;;;;;;2.24;100.00;98547.74;1648745;85;26014;-86
2022/03/05 03:36:56;;;;;;;;;;;;;;;2.25;100.00;98550.28;1644523;86;25161;-86
2022/03/05 03:39:22;;;;;;;;;;;;;;;2.27;100.00;98550.23;1651803;86;20537;-86
2022/03/05 03:41:48;;;;;;;;;;;;;;;2.24;100.00;98544.72;1646313;86;24816;-86
2022/03/05 03:44:15;;;;;;;;;;;;;;;2.19;100.00;98550.93;1625006;87;21983;-86
2022/03/05 03:46:41;;;;;;;;;;;;;;;2.10;100.00;98550.37;1640657;86;26046;-86
2022/03/05 03:49:07;;;;;;;;;;;;;;;2.09;100.00;98546.53;1637001;86;24428;-86
2022/03/05 03:51:33;;;;;;;;;;;;;;;2.12;100.00;98550.77;1640724;86;20217;-87
2022/03/05 03:53:59;;;;;;;;;;;;;;;2.09;100.00;98551.26;1639459;86;24804;-86
2022/03/05 03:56:25;;;;;;;;;;;;;;;2.08;100.00;98552.14;1646952;86;21927;-86
2022/03/05 03:58:51;;;;;;;;;;;;;;;2.12;100.00;98554.64;1637058;86;26015;-86
2022/03/05 04:01:17;;;;;;;;;;;;;;;2.13;100.00;98560.20;1639286;86;24444;-85
2022/03/05 04:03:47;;;;;;;;;;;;;;;2.12;100.00;98560.65;1650101;86;20224;-86
2022/03/05 04:06:13;;;;;;;;;;;;;;;2.13;100.00;98556.33;1648175;86;24791;-86
2022/03/05 04:08:42;;;;;;;;;;;;;;;2.16;100.00;98556.21;1653008;84;22028;-86
2022/03/05 04:11:10;;;;;;;;;;;;;;;2.12;100.00;98553.34;1646088;86;26850;-86
2022/03/05 04:13:36;;;;;;;;;;;;;;;2.04;100.00;98551.02;1650748;84;24432;-86
2022/03/05 04:16:02;;;;;;;;;;;;;;;2.08;100.00;98550.85;1648932;86;20497;-86
2022/03/05 04:18:28;;;;;;;;;;;;;;;2.17;100.00;98546.29;1648939;86;24728;-86
2022/03/05 04:20:54;;;;;;;;;;;;;;;2.18;100.00;98546.25;1647995;86;21911;-86
2022/03/05 04:23:20;;;;;;;;;;;;;;;2.16;100.00;98554.92;1651381;84;26019;-86
2022/03/05 04:25:46;;;;;;;;;;;;;;;2.16;100.00;98549.77;1684851;84;20308;-87
2022/03/05 04:28:12;;;;;;;;;;;;;;;2.14;100.00;98547.22;1682404;84;20177;-87
2022/03/05 04:30:39;;;;;;;;;;;;;;;2.14;100.00;98551.09;1685817;84;24867;-87
2022/03/05 04:33:05;;;;;;;;;;;;;;;2.16;100.00;98558.34;1684254;84;22054;-87
2022/03/05 04:35:31;;;;;;;;;;;;;;;2.19;100.00;98558.23;1682825;84;25957;-87
2022/03/05 04:37:57;;;;;;;;;;;;;;;2.19;100.00;98562.55;1687399;84;24452;-87
2022/03/05 04:40:23;;;;;;;;;;;;;;;2.18;100.00;98565.61;1718731;81;20157;-87
2022/03/05 04:42:49;;;;;;;;;;;;;;;2.21;100.00;98565.93;1681798;85;24696;-86
2022/03/05 04:45:15;;;;;;;;;;;;;;;2.15;100.00;98562.27;1685505;85;23207;-87
2022/03/05 04:47:42;;;;;;;;;;;;;;;2.12;100.00;98564.97;1684492;85;25993;-86
2022/03/05 04:50:09;;;;;;;;;;;;;;;2.12;100.00;98564.97;1684932;85;24464;-86
2022/03/05 04:52:35;;;;;;;;;;;;;;;2.05;100.00;98565.17;1685301;85;20607;-87
2022/03/05 04:55:02;;;;;;;;;;;;;;;2.00;100.00;98563.63;1688463;85;24804;-87
2022/03/05 04:57:28;;;;;;;;;;;;;;;1.96;100.00;98569.36;1682061;85;22222;-86
2022/03/05 04:59:54;;;;;;;;;;;;;;;1.95;100.00;98566.81;1685205;85;26145;-87
2022/03/05 05:02:20;;;;;;;;;;;;;;;1.95;100.00;98562.95;1685396;85;24675;-87
2022/03/05 05:04:46;;;;;;;;;;;;;;;2.01;100.00;98566.17;1686431;85;20336;-87
2022/03/05 05:07:13;;;;;;;;;;;;;;;1.99;100.00;98565.38;1685998;84;24810;-87
2022/03/05 05:09:40;;;;;;;;;;;;;;;1.95;100.00;98565.53;1684834;85;21966;-87
2022/03/05 05:12:12;;;;;;;;;;;;;;;1.87;100.00;98565.77;1684640;85;26146;-87
2022/03/05 05:14:38;;;;;;;;;;;;;;;1.87;100.00;98564.92;1686907;85;24461;-87
2022/03/05 05:17:04;;;;;;;;;;;;;;;1.92;100.00;98564.32;1683867;85;20222;-87
2022/03/05 05:19:30;;;;;;;;;;;;;;;1.83;100.00;98561.61;1686176;85;20268;-86
2022/03/05 05:21:57;;;;;;;;;;;;;;;1.74;100.00;98569.66;1687809;84;22022;-86
2022/03/05 05:24:27;;;;;;;;;;;;;;;1.77;100.00;98571.28;1685131;83;26027;-86
2022/03/05 05:26:54;;;;;;;;;;;;;;;1.78;100.00;98569.95;1686253;84;24536;-85
2022/03/05 05:29:20;;;;;;;;;;;;;;;1.79;100.00;98566.48;1685191;84;20455;-86
2022/03/05 05:31:46;;;;;;;;;;;;;;;1.85;100.00;98575.77;1685003;83;24716;-85
2022/03/05 05:34:12;;;;;;;;;;;;;;;1.90;100.00;98574.72;1685348;83;21946;-84
2022/03/05 05:36:38;;;;;;;;;;;;;;;1.86;100.00;98573.11;1691189;84;26021;-86
2022/03/05 05:39:06;;;;;;;;;;;;;;;1.83;100.00;98574.95;1687431;83;24951;-86
2022/03/05 05:41:38;;;;;;;;;;;;;;;1.85;100.00;98579.62;1687823;84;20521;-86
2022/03/05 05:44:06;;;;;;;;;;;;;;;1.76;100.00;98585.06;1689287;84;24788;-86
2022/03/05 05:46:32;;;;;;;;;;;;;;;1.66;100.00;98576.78;1685267;83;22094;-85
2022/03/05 05:48:58;;;;;;;;;;;;;;;1.65;100.00;98586.70;1686732;84;26637;-85
2022/03/05 05:51:26;;;;;;;;;;;;;;;1.65;100.00;98586.70;1685420;84;24598;-85
2022/03/05 05:53:59;;;;;;;;;;;;;;;1.64;100.00;98585.85;1687400;84;20201;-86
2022/03/05 05:56:25;;;;;;;;;;;;;;;1.66;100.00;98581.95;1688560;84;24793;-86
2022/03/05 05:58:51;;;;;;;;;;;;;;;1.55;100.00;98590.02;1686070;84;21907;-87
2022/03/05 06:01:21;;;;;;;;;;;;;;;1.57;100.00;98589.98;1688146;83;26029;-86
2022/03/05 06:03:45;;;;;;;;;;;;;;;1.57;100.00;98597.72;1683886;83;26556;-82
2022/03/05 06:06:12;;;;;;;;;;;;;;;1.52;100.00;98592.71;1710734;80;20225;-82
2022/03/05 06:08:39;;;;;;;;;;;;;;;1.39;100.00;98600.41;1691487;83;24545;-82
2022/03/05 06:11:05;;;;;;;;;;;;;;;1.29;100.00;98604.60;1686119;83;21934;-82
2022/03/05 06:13:31;;;;;;;;;;;;;;;1.26;100.00;98608.10;1683490;84;25963;-81
2022/03/05 06:15:57;;;;;;;;;;;;;;;1.19;100.00;98604.89;1686919;83;24499;-83
2022/03/05 06:18:23;;;;;;;;;;;;;;;1.18;100.00;98602.34;1683931;84;20214;-82
2022/03/05 06:20:49;;;;;;;;;;;;;;;1.19;100.00;98607.47;1686302;84;24757;-82
2022/03/05 06:23:18;;;;;;;;;;;;;;;1.21;100.00;98612.55;1685928;83;21918;-82
2022/03/05 06:25:44;;;;;;;;;;;;;;;1.18;100.00;98609.64;1686280;83;26117;-82
2022/03/05 06:28:10;;;;;;;;;;;;;;;1.12;100.00;98612.39;1685870;85;24459;-82
2022/03/05 06:30:36;;;;;;;;;;;;;;;1.04;100.00;98613.04;1683579;85;20464;-82
2022/03/05 06:33:03;;;;;;;;;;;;;;;1.03;100.00;98611.82;1682801;85;24716;-82
2022/03/05 06:35:29;;;;;;;;;;;;;;;1.00;100.00;98614.47;1684864;85;22441;-85
2022/03/05 06:37:55;;;;;;;;;;;;;;;0.98;100.00;98615.83;1686905;85;26158;-85
2022/03/05 06:40:21;;;;;;;;;;;;;;;1.02;100.00;98619.99;1685333;84;24560;-85
2022/03/05 06:42:47;;;;;;;;;;;;;;;1.03;100.00;98618.27;1685843;85;20185;-86
2022/03/05 06:45:13;;;;;;;;;;;;;;;0.99;100.00;98621.35;1687601;84;24760;-86
2022/03/05 06:47:40;;;;;;;;;;;;;;;1.02;100.00;98625.59;1684215;85;21973;-87
2022/03/05 06:50:07;;;;;;;;;;;;;;;1.03;100.00;98623.42;1684790;84;26071;-86
2022/03/05 06:52:39;;;;;;;;;;;;;;;1.05;100.00;98625.05;1686383;85;24507;-86
2022/03/05 06:55:06;;;;;;;;;;;;;;;1.09;100.00;98636.13;1716620;81;20483;-87
2022/03/05 06:57:33;;;;;;;;;;;;;;;1.00;100.00;98634.64;1683559;85;25399;-86
2022/03/05 06:59:59;;;;;;;;;;;;;;;0.97;100.00;98632.16;1686899;85;22178;-87
2022/03/05 07:02:25;;;;;;;;;;;;;;;1.02;100.00;98630.30;1686642;85;25964;-87
2022/03/05 07:04:51;;;;;;;;;;;;;;;1.03;100.00;98628.13;1684954;85;24551;-86
2022/03/05 07:07:17;;;;;;;;;;;;;;;1.04;100.00;98640.54;1684404;85;20238;-86
2022/03/05 07:09:43;;;;;;;;;;;;;;;1.02;100.00;98631.59;1686146;85;24812;-86
2022/03/05 07:12:10;;;;;;;;;;;;;;;1.05;100.00;98638.37;1687046;84;21962;-86
2022/03/05 07:14:36;;;;;;;;;;;;;;;1.07;100.00;98634.88;1688169;84;26031;-86
2022/03/05 07:17:03;;;;;;;;;;;;;;;1.09;100.00;98635.66;1684147;85;24754;-86
2022/03/05 07:19:29;;;;;;;;;;;;;;;1.07;100.00;98640.03;1686111;85;20475;-87
2022/03/05 07:21:55;;;;;;;;;;;;;;;1.11;100.00;98641.63;1687184;85;24897;-86
2022/03/05 07:24:21;;;;;;;;;;;;;;;1.09;100.00;98636.13;1683246;84;21821;-86
2022/03/05 07:26:53;;;;;;;;;;;;;;;1.08;100.00;98640.44;1685327;85;21722;-86
2022/03/05 07:29:19;;;;;;;;;;;;;;;1.12;100.00;98635.59;1687837;84;24455;-86
2022/03/05 07:31:45;;;;;;;;;;;;;;;1.17;100.00;98642.73;1686641;85;20490;-86
2022/03/05 07:34:11;;;;;;;;;;;;;;;1.19;100.00;98637.55;1685440;85;24825;-86
2022/03/05 07:36:38;;;;;;;;;;;;;;;1.15;100.00;98642.37;1685552;85;22078;-86
2022/03/05 07:39:07;;;;;;;;;;;;;;;1.15;100.00;98649.66;1686564;85;26224;-86
2022/03/05 07:41:33;;;;;;;;;;;;;;;1.13;100.00;98652.74;1687433;84;24476;-86
2022/03/05 07:43:59;;;;;;;;;;;;;;;1.13;100.00;98654.03;1685568;85;20247;-86
2022/03/05 07:46:26;;;;;;;;;;;;;;;1.17;100.00;98663.36;1724766;82;24618;-86
2022/03/05 07:48:52;;;;;;;;;;;;;;;1.14;100.00;98657.45;1685298;85;22063;-86
2022/03/05 07:51:18;;;;;;;;;;;;;;;1.18;100.00;98664.20;1686025;85;26091;-86
2022/03/05 07:53:44;;;;;;;;;;;;;;;1.20;100.00;98658.10;1683360;85;24500;-85
2022/03/05 07:56:11;;;;;;;;;;;;;;;1.24;100.00;98661.02;1684368;85;20431;-86
2022/03/05 07:58:37;;;;;;;;;;;;;;;1.30;100.00;98666.87;1687006;85;24802;-86
2022/03/05 08:01:03;;;;;;;;;;;;;;;1.29;100.00;98669.05;1686322;85;22025;-85
2022/03/05 08:03:29;;;;;;;;;;;;;;;1.32;100.00;98670.23;1686958;85;25983;-86
2022/03/05 08:05:57;;;;;;;;;;;;;;;1.37;100.00;98669.21;1681907;84;24527;-86
2022/03/05 08:08:23;;;;;;;;;;;;;;;1.42;100.00;98670.39;1679821;83;20251;-87
2022/03/05 08:10:49;;;;;;;;;;;;;;;1.48;100.00;98666.31;1681873;84;24715;-87
2022/03/05 08:13:15;;;;;;;;;;;;;;;1.51;100.00;98671.41;1674159;84;21919;-86
2022/03/05 08:15:41;;;;;;;;;;;;;;;1.52;100.00;98667.94;1675996;83;26097;-86
2022/03/05 08:18:07;;;;;;;;;;;;;;;1.59;100.00;98670.71;1678999;84;24366;-86
2022/03/05 08:20:33;;;;;;;;;;;;;;;1.64;100.00;98674.00;1677245;84;20442;-86
2022/03/05 08:22:59;;;;;;;;;;;;;;;1.60;100.00;98675.83;1672960;84;20297;-86
2022/03/05 08:25:27;;;;;;;;;;;;;;;1.64;100.00;98677.86;1677379;83;22081;-86
2022/03/05 08:27:53;;;;;;;;;;;;;;;1.74;100.00;98675.43;1655111;84;26266;-86
2022/03/05 08:30:20;;;;;;;;;;;;;;;1.76;100.00;98681.37;1675151;84;24292;-85
2022/03/05 08:32:46;;;;;;;;;;;;;;;1.74;100.00;98688.77;1676146;84;20212;-86
2022/03/05 08:35:12;;;;;;;;;;;;;;;1.67;100.00;98684.23;1674764;83;24808;-86
2022/03/05 08:37:39;;;;;;;;;;;;;;;1.63;100.00;98687.80;1680332;84;21973;-86
2022/03/05 08:40:08;;;;;;;;;;;;;;;1.59;100.00;98690.91;1672346;84;26033;-86
2022/03/05 08:42:34;;;;;;;;;;;;;;;1.60;100.00;98693.04;1676653;84;24489;-86
2022/03/05 08:45:01;;;;;;;;;;;;;;;1.62;100.00;98689.54;1683193;84;20238;-85
2022/03/05 08:47:27;;;;;;;;;;;;;;;1.64;100.00;98691.61;1695178;83;25550;-84
2022/03/05 08:49:54;;;;;;;;;;;;;;;1.60;100.00;98693.89;1678059;84;22191;-81
2022/03/05 08:52:20;;;;;;;;;;;;;;;1.66;100.00;98688.99;1666543;84;26202;-81
2022/03/05 08:54:46;;;;;;;;;;;;;;;1.75;100.00;98693.86;1677928;83;25387;-81
2022/03/05 08:57:12;;;;;;;;;;;;;;;1.80;100.00;98696.33;1672552;83;20807;-81
2022/03/05 08:59:38;;;;;;;;;;;;;;;1.82;100.00;98694.08;1676761;83;24750;-81
2022/03/05 09:02:05;;;;;;;;;;;;;;;1.83;100.00;98700.09;1695961;83;21859;-83
2022/03/05 09:04:32;;;;;;;;;;;;;;;1.88;100.00;98699.50;1683049;84;25982;-81
2022/03/05 09:06:58;;;;;;;;;;;;;;;1.92;100.00;98698.51;1672042;83;24418;-82
2022/03/05 09:09:25;;;;;;;;;;;;;;;1.96;100.00;98697.10;1675931;83;20262;-81
2022/03/05 09:11:51;;;;;;;;;;;;;;;1.99;100.00;98702.16;1672859;84;24753;-81
2022/03/05 09:14:17;;;;;;;;;;;;;;;2.03;100.00;98697.28;1671497;84;21972;-81
2022/03/05 09:16:43;;;;;;;;;;;;;;;2.01;100.00;98701.67;1669832;84;25969;-81
2022/03/05 09:19:09;;;;;;;;;;;;;;;2.01;100.00;98696.52;1672994;84;25202;-81
2022/03/05 09:21:36;;;;;;;;;;;;;;;2.09;100.00;98694.95;1673651;83;20277;-81
2022/03/05 09:24:03;;;;;;;;;;;;;;;2.09;100.00;98698.83;1677703;84;24762;-82
2022/03/05 09:26:29;;;;;;;;;;;;;;;2.14;100.00;98698.68;1664164;84;22058;-82
2022/03/05 09:28:55;;;;;;;;;;;;;;;2.17;100.00;98701.18;1677886;84;26087;-82
2022/03/05 09:31:21;;;;;;;;;;;;;;;2.20;100.00;98703.66;1670545;84;24378;-82
2022/03/05 09:33:47;;;;;;;;;;;;;;;2.23;100.00;98707.00;1672248;84;20300;-82
2022/03/05 09:36:13;;;;;;;;;;;;;;;2.22;100.00;98709.62;1676511;84;24753;-83
2022/03/05 09:38:42;;;;;;;;;;;;;;;2.25;100.00;98700.47;1674979;84;21929;-83
2022/03/05 09:41:08;;;;;;;;;;;;;;;2.26;100.00;98706.05;1675133;84;26811;-84
2022/03/05 09:43:35;;;;;;;;;;;;;;;2.35;100.00;98704.44;1688068;84;24665;-85
2022/03/05 09:46:01;;;;;;;;;;;;;;;2.39;100.00;98699.16;1683172;83;20222;-86
2022/03/05 09:48:28;;;;;;;;;;;;;;;2.43;100.00;98696.02;1685372;83;24823;-86
2022/03/05 09:50:57;;;;;;;;;;;;;;;2.47;100.00;98700.17;1687458;84;21973;-84
2022/03/05 09:53:28;;;;;;;;;;;;;;;2.52;100.00;98700.86;1683536;83;25962;-86
2022/03/05 09:55:54;;;;;;;;;;;;;;;2.56;100.00;98696.02;1686170;84;24462;-86
2022/03/05 09:58:20;;;;;;;;;;;;;;;2.59;100.00;98701.06;1686273;83;20349;-86
2022/03/05 10:00:46;;;;;;;;;;;;;;;2.70;100.00;98702.84;1687583;83;24709;-87
2022/03/05 10:03:13;;;;;;;;;;;;;;;2.74;100.00;98704.41;1688250;84;21985;-86
2022/03/05 10:05:39;;;;;;;;;;;;;;;2.71;100.00;98699.81;1682372;83;25962;-86
2022/03/05 10:08:10;;;;;;;;;;;;;;;2.68;100.00;98704.62;1682575;83;24400;-87
2022/03/05 10:11:01;;;;;;;;;;;;;;;2.60;100.00;98698.88;1685566;83;20475;-88
2022/03/05 10:13:29;;;;;;;;;;;;;;;2.50;100.00;98702.23;1689280;83;24722;-88
2022/03/05 10:15:57;;;;;;;;;;;;;;;2.38;100.00;98698.75;1676641;83;22800;-88
2022/03/05 10:18:27;;;;;;;;;;;;;;;2.35;100.00;98692.38;1678886;84;26200;-88
2022/03/05 10:20:53;;;;;;;;;;;;;;;2.41;100.00;98697.34;1682695;83;24444;-88
2022/03/05 10:23:20;;;;;;;;;;;;;;;2.41;100.00;98702.51;1683859;84;20263;-87
2022/03/05 10:25:50;;;;;;;;;;;;;;;2.41;100.00;98696.50;1677574;83;24726;-83
2022/03/05 10:28:20;;;;;;;;;;;;;;;2.42;100.00;98699.04;1691417;84;21903;-85
2022/03/05 10:31:02;;;;;;;;;;;;;;;2.45;100.00;98696.81;1662804;85;26171;-85
2022/03/05 10:33:29;;;;;;;;;;;;;;;2.47;100.00;98695.86;1661337;85;24561;-85
2022/03/05 10:35:57;;;;;;;;;;;;;;;2.49;100.00;98700.98;1662830;85;20593;-84
2022/03/05 10:38:25;;;;;;;;;;;;;;;2.54;100.00;98705.55;1662959;86;24852;-85
2022/03/05 10:40:56;;;;;;;;;;;;;;;2.63;100.00;98698.77;1662839;85;21959;-85
2022/03/05 10:43:22;;;;;;;;;;;;;;;2.66;100.00;98696.09;1662588;85;26003;-85
2022/03/05 10:45:50;;;;;;;;;;;;;;;2.73;100.00;98696.27;1662855;85;24420;-85
2022/03/05 10:48:27;;;;;;;;;;;;;;;2.81;100.00;98694.72;1662992;85;20272;-85
2022/03/05 10:51:04;;;;;;;;;;;;;;;2.85;100.00;98696.29;1662382;85;24903;-85
2022/03/05 10:53:37;;;;;;;;;;;;;;;2.81;100.00;98703.31;1662655;85;22063;-84
2022/03/05 10:56:23;;;;;;;;;;;;;;;2.74;100.00;98703.56;1662984;85;26086;-84
2022/03/05 10:59:05;;;;;;;;;;;;;;;2.65;100.00;98701.30;1663112;85;24456;-84
2022/03/05 11:01:32;;;;;;;;;;;;;;;2.56;100.00;98708.08;1662972;85;20493;-85
2022/03/05 11:03:59;;;;;;;;;;;;;;;2.51;100.00;98702.59;1660446;85;24853;-85
2022/03/05 11:06:25;;;;;;;;;;;;;;;2.49;100.00;98704.41;1663038;85;22020;-85
2022/03/05 11:08:52;;;;;;;;;;;;;;;2.48;100.00;98707.03;1663184;85;26335;-85
2022/03/05 11:11:21;;;;;;;;;;;;;;;2.43;100.00;98708.92;1662870;85;25122;-85
2022/03/05 11:13:47;;;;;;;;;;;;;;;2.31;100.00;98706.30;1662984;85;20227;-85
2022/03/05 11:16:13;;;;;;;;;;;;;;;2.25;100.00;98706.48;1662393;85;24844;-83
2022/03/05 11:18:40;;;;;;;;;;;;;;;2.23;100.00;98702.28;1663554;85;22023;-84
2022/03/05 11:21:07;;;;;;;;;;;;;;;2.20;100.00;98703.66;1663215;85;25999;-85
2022/03/05 11:23:34;;;;;;;;;;;;;;;2.20;100.00;98703.66;1663246;85;24412;-84
2022/03/05 11:26:00;;;;;;;;;;;;;;;2.23;100.00;98704.86;1663323;83;20301;-84
2022/03/05 11:28:36;;;;;;;;;;;;;;;2.27;100.00;98706.00;1645276;86;24695;-84
2022/03/05 11:31:07;;;;;;;;;;;;;;;2.31;100.00;98709.31;1662873;85;22750;-85
2022/03/05 11:33:38;;;;;;;;;;;;;;;2.35;100.00;98703.16;1662717;85;26088;-84
2022/03/05 11:36:06;;;;;;;;;;;;;;;2.40;100.00;98703.88;1661861;85;24488;-84
2022/03/05 11:38:34;;;;;;;;;;;;;;;2.48;100.00;98709.17;1645640;86;20242;-84
2022/03/05 11:41:21;;;;;;;;;;;;;;;2.52;100.00;98701.70;1662647;85;25036;-84
2022/03/05 11:43:47;;;;;;;;;;;;;;;2.57;100.00;98700.26;1662848;85;22768;-83
2022/03/05 11:46:23;;;;;;;;;;;;;;;2.62;100.00;98695.78;1662786;85;26014;-85
2022/03/05 11:49:08;;;;;;;;;;;;;;;2.57;100.00;98695.53;1661385;86;24470;-85
2022/03/05 11:51:36;;;;;;;;;;;;;;;2.58;100.00;98687.74;1662918;85;20555;-85
2022/03/05 11:54:06;;;;;;;;;;;;;;;2.63;100.00;98685.84;1665956;84;20222;-83
2022/03/05 11:56:32;;;;;;;;;;;;;;;2.65;100.00;98691.81;1662834;85;22002;-83
2022/03/05 11:59:00;;;;;;;;;;;;;;;2.57;100.00;98683.47;1663073;85;26027;-83
2022/03/05 12:01:35;;;;;;;;;;;;;;;2.49;100.00;98681.16;1660101;85;20705;-83
2022/03/05 12:04:05;;;;;;;;;;;;;;;2.43;100.00;98682.66;1662517;85;20226;-83
2022/03/05 12:06:44;;;;;;;;;;;;;;;2.26;100.00;98688.81;1660477;85;24703;-84
2022/03/05 12:09:29;;;;;;;;;;;;;;;2.09;100.00;98683.34;1663008;85;22000;-85
2022/03/05 12:11:55;;;;;;;;;;;;;;;2.03;100.00;98695.15;1661819;85;26068;-86
2022/03/05 12:14:21;;;;;;;;;;;;;;;1.96;100.00;98691.94;1660392;85;25083;-85
2022/03/05 12:16:47;;;;;;;;;;;;;;;1.88;100.00;98703.38;1662966;85;20310;-85
2022/03/05 12:19:15;;;;;;;;;;;;;;;1.81;100.00;98705.73;1670856;84;25724;-85
2022/03/05 12:21:41;;;;;;;;;;;;;;;1.80;100.00;98705.36;1672574;84;22042;-82
2022/03/05 12:24:09;;;;;;;;;;;;;;;1.79;100.00;98699.35;1672287;84;25946;-81
2022/03/05 12:26:47;;;;;;;;;;;;;;;1.82;100.00;98705.70;1677483;83;24425;-82
2022/03/05 12:29:20;;;;;;;;;;;;;;;1.88;100.00;98703.38;1661894;84;20174;-82
2022/03/05 12:31:46;;;;;;;;;;;;;;;1.87;100.00;98697.37;1671853;84;24818;-82
2022/03/05 12:34:13;;;;;;;;;;;;;;;1.91;100.00;98693.79;1661558;84;21956;-81
2022/03/05 12:36:44;;;;;;;;;;;;;;;2.02;100.00;98689.58;1686323;83;26774;-83
2022/03/05 12:39:10;;;;;;;;;;;;;;;2.10;100.00;98688.91;1668677;83;24421;-83
2022/03/05 12:41:36;;;;;;;;;;;;;;;2.13;100.00;98686.69;1666771;84;20230;-83
2022/03/05 12:44:03;;;;;;;;;;;;;;;2.17;100.00;98692.99;1669673;84;24854;-83
2022/03/05 12:46:29;;;;;;;;;;;;;;;2.24;100.00;98682.84;1674480;83;22057;-83
2022/03/05 12:48:57;;;;;;;;;;;;;;;2.35;100.00;98688.95;1664345;84;26100;-83